createdAt,value
2022-09-12T00:01:32.768Z,25.53
2022-09-12T00:04:03.387Z,25.39
2022-09-12T00:06:34.640Z,25.19
2022-09-12T00:09:09.556Z,24.92
2022-09-12T00:11:39.011Z,24.65
2022-09-12T00:14:09.207Z,24.57
2022-09-12T00:16:38.931Z,24.99
2022-09-12T00:19:08.936Z,24.77
2022-09-12T00:21:39.368Z,24.43
2022-09-12T00:24:08.575Z,23.91
2022-09-12T00:26:37.660Z,23.87
2022-09-12T00:29:06.210Z,23.70
2022-09-12T00:31:34.799Z,23.57
2022-09-12T00:34:03.412Z,23.48
2022-09-12T00:36:32.281Z,23.14
2022-09-12T00:39:02.015Z,23.06
2022-09-12T00:41:30.583Z,22.99
2022-09-12T00:44:07.031Z,23.10
2022-09-12T00:46:57.257Z,23.20
2022-09-12T00:49:34.593Z,23.02
2022-09-12T00:52:16.254Z,22.68
2022-09-12T00:54:58.374Z,22.87
2022-09-12T00:57:32.764Z,23.08
2022-09-12T01:00:23.587Z,23.15
2022-09-12T01:03:10.595Z,23.28
2022-09-12T01:05:45.788Z,23.21
2022-09-12T01:08:14.544Z,23.03
2022-09-12T01:10:44.134Z,22.79
2022-09-12T01:13:13.132Z,22.68
2022-09-12T01:15:42.287Z,22.76
2022-09-12T01:18:21.084Z,22.82
2022-09-12T01:21:12.906Z,22.70
2022-09-12T01:24:17.914Z,22.28
2022-09-12T01:27:30.815Z,22.22
2022-09-12T01:30:23.806Z,22.25
2022-09-12T01:33:12.226Z,22.20
2022-09-12T01:36:19.408Z,22.11
2022-09-12T01:38:55.465Z,21.70
2022-09-12T01:41:41.354Z,21.45
2022-09-12T01:44:36.838Z,21.70
2022-09-12T01:47:15.865Z,21.70
2022-09-12T01:49:59.492Z,21.59
2022-09-12T01:52:30.809Z,21.55
2022-09-12T01:55:11.937Z,21.36
2022-09-12T01:58:02.250Z,21.35
2022-09-12T02:00:33.090Z,21.28
2022-09-12T02:03:14.218Z,20.55
2022-09-12T02:05:59.929Z,20.28
2022-09-12T02:08:34.411Z,20.72
2022-09-12T02:11:11.995Z,20.53
2022-09-12T02:13:49.472Z,20.25
2022-09-12T02:16:29.526Z,20.11
2022-09-12T02:19:04.949Z,20.22
2022-09-12T02:21:35.612Z,20.13
2022-09-12T02:24:09.621Z,19.77
2022-09-12T02:26:56.354Z,19.45
2022-09-12T02:29:25.238Z,19.62
2022-09-12T02:32:06.434Z,19.66
2022-09-12T02:34:44.027Z,19.64
2022-09-12T02:37:12.579Z,19.27
2022-09-12T02:39:44.981Z,19.09
2022-09-12T02:42:14.110Z,19.22
2022-09-12T02:44:42.931Z,19.14
2022-09-12T02:47:24.738Z,19.09
2022-09-12T02:49:54.882Z,19.16
2022-09-12T02:52:23.928Z,19.21
2022-09-12T02:54:53.472Z,19.13
2022-09-12T02:57:23.559Z,19.06
2022-09-12T02:59:55.045Z,18.92
2022-09-12T03:02:44.019Z,18.82
2022-09-12T03:05:22.902Z,18.72
2022-09-12T03:08:22.990Z,18.62
2022-09-12T03:11:09.987Z,18.41
2022-09-12T03:14:03.703Z,18.10
2022-09-12T03:16:44.204Z,18.12
2022-09-12T03:19:46.715Z,18.06
2022-09-12T03:22:38.391Z,17.94
2022-09-12T03:25:19.507Z,17.82
2022-09-12T03:28:01.911Z,17.73
2022-09-12T03:30:30.285Z,17.62
2022-09-12T03:32:58.935Z,17.52
2022-09-12T03:35:28.082Z,17.44
2022-09-12T03:37:56.640Z,17.07
2022-09-12T03:40:25.278Z,16.96
2022-09-12T03:42:53.820Z,17.00
2022-09-12T03:45:22.676Z,17.00
2022-09-12T03:47:51.326Z,16.98
2022-09-12T03:50:20.135Z,16.68
2022-09-12T03:52:48.938Z,16.60
2022-09-12T03:55:18.779Z,16.52
2022-09-12T03:57:47.577Z,16.48
2022-09-12T04:00:19.692Z,16.50
2022-09-12T04:02:48.587Z,16.46
2022-09-12T04:05:17.454Z,16.36
2022-09-12T04:07:46.028Z,16.37
2022-09-12T04:10:16.161Z,16.35
2022-09-12T04:12:46.660Z,16.33
2022-09-12T04:15:15.003Z,16.34
2022-09-12T04:17:43.519Z,16.17
2022-09-12T04:20:12.229Z,16.07
2022-09-12T04:22:40.800Z,16.11
2022-09-12T04:25:10.783Z,16.31
2022-09-12T04:27:39.555Z,16.42
2022-09-12T04:30:08.894Z,16.35
2022-09-12T04:32:37.317Z,15.98
2022-09-12T04:35:06.498Z,15.90
2022-09-12T04:37:35.042Z,15.93
2022-09-12T04:40:03.825Z,15.78
2022-09-12T04:42:32.475Z,15.70
2022-09-12T04:45:01.063Z,15.54
2022-09-12T04:47:30.268Z,15.35
2022-09-12T04:49:58.847Z,15.18
2022-09-12T04:52:27.255Z,15.08
2022-09-12T04:54:55.896Z,15.00
2022-09-12T04:57:24.444Z,14.90
2022-09-12T04:59:52.922Z,14.80
2022-09-12T05:02:21.499Z,14.68
2022-09-12T05:04:50.380Z,14.71
2022-09-12T05:07:18.926Z,14.63
2022-09-12T05:09:47.530Z,14.68
2022-09-12T05:12:16.318Z,14.72
2022-09-12T05:14:45.143Z,14.66
2022-09-12T05:17:14.016Z,14.60
2022-09-12T05:19:42.839Z,14.57
2022-09-12T05:22:11.730Z,14.48
2022-09-12T05:24:40.675Z,14.47
2022-09-12T05:27:08.645Z,14.43
2022-09-12T05:29:37.360Z,14.32
2022-09-12T05:32:06.016Z,14.33
2022-09-12T05:34:34.738Z,14.23
2022-09-12T05:37:03.257Z,14.25
2022-09-12T05:39:31.850Z,14.18
2022-09-12T05:42:00.408Z,14.11
2022-09-12T05:44:29.531Z,14.11
2022-09-12T05:46:58.142Z,14.10
2022-09-12T05:49:26.759Z,14.08
2022-09-12T05:51:55.478Z,14.08
2022-09-12T05:54:25.568Z,14.00
2022-09-12T05:56:58.014Z,13.87
2022-09-12T05:59:26.615Z,13.83
2022-09-12T06:01:55.248Z,13.76
2022-09-12T06:04:25.051Z,13.73
2022-09-12T06:06:53.873Z,13.68
2022-09-12T06:09:23.266Z,13.63
2022-09-12T06:11:51.898Z,13.60
2022-09-12T06:14:20.799Z,13.55
2022-09-12T06:16:49.471Z,13.45
2022-09-12T06:19:21.162Z,13.24
2022-09-12T06:21:50.856Z,13.08
2022-09-12T06:24:21.088Z,12.96
2022-09-12T06:26:51.147Z,12.83
2022-09-12T06:29:20.620Z,12.71
2022-09-12T06:31:49.287Z,12.62
2022-09-12T06:34:18.335Z,12.52
2022-09-12T06:36:49.890Z,12.46
2022-09-12T06:39:21.354Z,12.44
2022-09-12T06:41:51.425Z,12.52
2022-09-12T06:44:23.839Z,12.46
2022-09-12T06:46:52.447Z,12.41
2022-09-12T06:49:20.376Z,12.30
2022-09-12T06:51:48.915Z,12.24
2022-09-12T06:54:21.526Z,12.14
2022-09-12T06:56:50.621Z,12.06
2022-09-12T06:59:19.584Z,11.97
2022-09-12T07:01:48.648Z,11.84
2022-09-12T07:04:17.412Z,11.81
2022-09-12T07:06:46.203Z,11.76
2022-09-12T07:09:19.260Z,11.64
2022-09-12T07:11:48.618Z,11.53
2022-09-12T07:14:17.703Z,11.40
2022-09-12T07:16:46.533Z,11.23
2022-09-12T07:19:15.173Z,11.18
2022-09-12T07:21:44.342Z,11.17
2022-09-12T07:24:13.058Z,11.10
2022-09-12T07:26:42.984Z,10.97
2022-09-12T07:29:36.910Z,10.93
2022-09-12T07:32:06.751Z,10.83
2022-09-12T07:34:36.501Z,10.84
2022-09-12T07:37:05.435Z,10.76
2022-09-12T07:39:34.030Z,10.74
2022-09-12T07:42:02.862Z,10.77
2022-09-12T07:44:31.647Z,10.78
2022-09-12T07:47:00.053Z,10.74
2022-09-12T07:49:28.727Z,10.77
2022-09-12T07:51:58.023Z,10.84
2022-09-12T07:54:26.626Z,10.86
2022-09-12T07:56:55.195Z,10.86
2022-09-12T07:59:48.445Z,10.84
2022-09-12T08:02:18.360Z,10.85
2022-09-12T08:04:47.136Z,10.87
2022-09-12T08:07:15.463Z,10.90
2022-09-12T08:09:44.079Z,11.05
2022-09-12T08:12:12.727Z,11.14
2022-09-12T08:14:41.250Z,11.09
2022-09-12T08:17:09.889Z,11.01
2022-09-12T08:19:39.965Z,11.09
2022-09-12T08:22:09.367Z,11.05
2022-09-12T08:24:41.255Z,11.00
2022-09-12T08:27:09.961Z,11.02
2022-09-12T08:29:38.522Z,11.08
2022-09-12T08:32:07.159Z,11.09
2022-09-12T08:34:36.247Z,11.14
2022-09-12T08:37:05.055Z,11.18
2022-09-12T08:39:34.523Z,11.19
2022-09-12T08:42:04.732Z,11.16
2022-09-12T08:45:03.992Z,11.19
2022-09-12T08:47:41.827Z,11.18
2022-09-12T08:50:12.836Z,11.14
2022-09-12T08:52:45.922Z,11.19
2022-09-12T08:55:48.283Z,11.18
2022-09-12T08:58:22.558Z,11.11
2022-09-12T09:01:09.389Z,10.95
2022-09-12T09:04:06.834Z,10.91
2022-09-12T09:06:53.326Z,10.88
2022-09-12T09:09:47.959Z,10.80
2022-09-12T09:12:33.531Z,10.73
2022-09-12T09:15:39.189Z,10.68
2022-09-12T09:18:30.903Z,10.59
2022-09-12T09:21:28.827Z,10.62
2022-09-12T09:24:05.754Z,10.60
2022-09-12T09:26:57.813Z,10.60
2022-09-12T09:29:37.255Z,10.59
2022-09-12T09:32:16.841Z,10.58
2022-09-12T09:34:45.663Z,10.56
2022-09-12T09:37:26.119Z,10.56
2022-09-12T09:40:22.244Z,10.55
2022-09-12T09:43:09.290Z,10.50
2022-09-12T09:45:38.642Z,10.45
2022-09-12T09:48:29.178Z,10.35
2022-09-12T09:51:01.607Z,10.32
2022-09-12T09:53:56.166Z,10.26
2022-09-12T09:56:24.732Z,10.13
2022-09-12T09:58:53.288Z,10.08
2022-09-12T10:01:22.174Z,10.00
2022-09-12T10:03:56.232Z,9.97
2022-09-12T10:06:34.091Z,9.94
2022-09-12T10:09:26.918Z,9.91
2022-09-12T10:11:56.694Z,9.87
2022-09-12T10:14:40.774Z,9.80
2022-09-12T10:17:33.193Z,9.67
2022-09-12T10:20:21.074Z,9.60
2022-09-12T10:22:51.933Z,9.67
2022-09-12T10:25:22.615Z,9.64
2022-09-12T10:27:59.544Z,9.62
2022-09-12T10:30:29.622Z,9.61
2022-09-12T10:33:11.229Z,9.58
2022-09-12T10:35:51.203Z,9.56
2022-09-12T10:38:26.420Z,9.53
2022-09-12T10:41:02.610Z,9.50
2022-09-12T10:43:39.594Z,9.43
2022-09-12T10:46:17.828Z,9.37
2022-09-12T10:48:51.127Z,9.29
2022-09-12T10:51:25.755Z,9.28
2022-09-12T10:54:04.291Z,9.20
2022-09-12T10:56:36.591Z,9.13
2022-09-12T10:59:05.124Z,9.06
2022-09-12T11:01:50.007Z,9.00
2022-09-12T11:04:44.344Z,8.91
2022-09-12T11:07:41.022Z,8.92
2022-09-12T11:10:41.459Z,8.83
2022-09-12T11:13:36.559Z,8.80
2022-09-12T11:16:24.319Z,8.73
2022-09-12T11:19:14.568Z,8.70
2022-09-12T11:22:07.753Z,8.64
2022-09-12T11:25:17.974Z,8.60
2022-09-12T11:28:17.660Z,8.55
2022-09-12T11:31:21.342Z,8.40
2022-09-12T11:33:56.623Z,8.36
2022-09-12T11:36:46.275Z,8.30
2022-09-12T11:39:18.006Z,8.25
2022-09-12T11:41:52.792Z,8.25
2022-09-12T11:44:26.020Z,8.20
2022-09-12T11:46:54.333Z,8.14
2022-09-12T11:49:56.196Z,8.06
2022-09-12T11:52:25.810Z,7.98
2022-09-12T11:55:09.952Z,7.87
2022-09-12T11:57:54.246Z,7.81
2022-09-12T12:00:42.140Z,7.82
2022-09-12T12:03:30.025Z,7.76
2022-09-12T12:06:06.236Z,7.70
2022-09-12T12:08:41.164Z,7.68
2022-09-12T12:11:10.898Z,7.71
2022-09-12T12:13:49.995Z,7.68
2022-09-12T12:16:30.258Z,7.66
2022-09-12T12:19:09.986Z,7.69
2022-09-12T12:21:44.887Z,7.68
2022-09-12T12:24:21.183Z,7.73
2022-09-12T12:27:10.391Z,7.65
2022-09-12T12:29:46.655Z,7.55
2022-09-12T12:32:17.895Z,7.37
2022-09-12T12:34:48.731Z,6.94
2022-09-12T12:37:23.702Z,6.72
2022-09-12T12:39:53.047Z,6.58
2022-09-12T12:42:36.729Z,6.39
2022-09-12T12:45:05.640Z,6.23
2022-09-12T12:47:42.730Z,6.11
2022-09-12T12:50:27.752Z,5.95
2022-09-12T12:52:59.099Z,5.87
2022-09-12T12:55:40.076Z,5.86
2022-09-12T12:58:29.975Z,5.79
2022-09-12T13:01:28.126Z,5.60
2022-09-12T13:04:00.479Z,5.50
2022-09-12T13:06:35.066Z,5.49
2022-09-12T13:09:10.808Z,5.59
2022-09-12T13:11:41.915Z,5.55
2022-09-12T13:14:36.064Z,5.40
2022-09-12T13:17:09.215Z,5.38
2022-09-12T13:19:39.685Z,5.31
2022-09-12T13:22:11.210Z,5.41
2022-09-12T13:24:53.511Z,5.39
2022-09-12T13:27:27.360Z,5.45
2022-09-12T13:30:16.950Z,5.37
2022-09-12T13:32:45.979Z,5.45
2022-09-12T13:35:26.086Z,5.40
2022-09-12T13:38:37.049Z,5.38
2022-09-12T13:41:08.347Z,5.38
2022-09-12T13:43:44.151Z,5.56
2022-09-12T13:46:18.084Z,5.69
2022-09-12T13:48:47.183Z,5.78
2022-09-12T13:51:36.224Z,5.89
2022-09-12T13:54:07.037Z,5.92
2022-09-12T13:56:35.888Z,5.97
2022-09-12T13:59:05.004Z,5.93
2022-09-12T14:01:48.194Z,5.93
2022-09-12T14:04:46.766Z,6.06
2022-09-12T14:07:20.927Z,6.16
2022-09-12T14:09:58.062Z,6.40
2022-09-12T14:12:30.891Z,6.54
2022-09-12T14:14:59.579Z,6.64
2022-09-12T14:17:31.333Z,6.75
2022-09-12T14:20:05.051Z,6.85
2022-09-12T14:22:36.173Z,6.92
2022-09-12T14:25:05.585Z,6.93
2022-09-12T14:27:51.998Z,6.97
2022-09-12T14:30:29.738Z,6.97
2022-09-12T14:33:04.633Z,6.93
2022-09-12T14:35:39.172Z,6.94
2022-09-12T14:38:17.277Z,7.00
2022-09-12T14:40:50.940Z,7.03
2022-09-12T14:43:49.155Z,7.14
2022-09-12T14:46:32.194Z,7.30
2022-09-12T14:49:09.293Z,7.49
2022-09-12T14:51:54.067Z,7.60
2022-09-12T14:54:31.774Z,7.59
2022-09-12T14:57:43.364Z,7.67
2022-09-12T15:00:14.847Z,7.78
2022-09-12T15:02:44.834Z,7.92
2022-09-12T15:05:13.378Z,8.11
2022-09-12T15:08:02.270Z,8.38
2022-09-12T15:10:39.284Z,8.24
2022-09-12T15:13:07.814Z,8.27
2022-09-12T15:15:37.746Z,8.41
2022-09-12T15:18:07.414Z,8.46
2022-09-12T15:20:39.941Z,8.62
2022-09-12T15:23:35.760Z,8.85
2022-09-12T15:26:04.931Z,8.90
2022-09-12T15:28:34.009Z,9.10
2022-09-12T15:31:32.348Z,9.26
2022-09-12T15:34:02.466Z,9.41
2022-09-12T15:36:31.205Z,9.53
2022-09-12T15:39:00.216Z,9.75
2022-09-12T15:41:38.126Z,9.79
2022-09-12T15:44:08.732Z,9.96
2022-09-12T15:46:37.451Z,10.13
2022-09-12T15:49:06.011Z,10.14
2022-09-12T15:51:34.698Z,10.22
2022-09-12T15:54:06.358Z,10.46
2022-09-12T15:56:34.647Z,10.53
2022-09-12T15:59:03.133Z,10.69
2022-09-12T16:01:31.704Z,10.76
2022-09-12T16:04:00.395Z,10.89
2022-09-12T16:06:36.266Z,11.04
2022-09-12T16:09:05.995Z,11.22
2022-09-12T16:11:34.514Z,11.35
2022-09-12T16:14:03.561Z,11.58
2022-09-12T16:16:32.349Z,11.72
2022-09-12T16:19:01.678Z,11.87
2022-09-12T16:21:30.625Z,12.09
2022-09-12T16:24:00.152Z,12.21
2022-09-12T16:26:28.765Z,12.49
2022-09-12T16:28:58.976Z,12.60
2022-09-12T16:31:29.360Z,12.76
2022-09-12T16:33:58.311Z,13.00
2022-09-12T16:36:26.879Z,13.23
2022-09-12T16:38:56.163Z,13.58
2022-09-12T16:41:28.812Z,14.24
2022-09-12T16:43:57.951Z,14.57
2022-09-12T16:46:29.694Z,14.70
2022-09-12T16:49:00.230Z,14.60
2022-09-12T16:51:33.000Z,15.33
2022-09-12T16:54:01.760Z,15.45
2022-09-12T16:56:30.795Z,15.52
2022-09-12T16:58:59.446Z,14.84
2022-09-12T17:01:28.187Z,14.56
2022-09-12T17:03:59.703Z,14.53
2022-09-12T17:06:29.539Z,14.53
2022-09-12T17:09:05.457Z,14.25
2022-09-12T17:11:40.011Z,14.46
2022-09-12T17:14:10.057Z,14.77
2022-09-12T17:16:41.968Z,15.05
2022-09-12T17:19:17.596Z,15.32
2022-09-12T17:21:48.937Z,15.26
2022-09-12T17:24:20.026Z,15.44
2022-09-12T17:26:48.935Z,15.54
2022-09-12T17:29:18.428Z,15.47
2022-09-12T17:31:47.715Z,16.10
2022-09-12T17:34:17.472Z,16.18
2022-09-12T17:36:47.035Z,16.81
2022-09-12T17:39:16.444Z,17.22
2022-09-12T17:41:46.969Z,17.70
2022-09-12T17:44:17.111Z,17.51
2022-09-12T17:46:45.787Z,17.97
2022-09-12T17:49:16.451Z,17.79
2022-09-12T17:51:45.509Z,17.65
2022-09-12T17:54:19.161Z,18.02
2022-09-12T17:56:51.007Z,17.99
2022-09-12T17:59:22.753Z,18.48
2022-09-12T18:02:09.387Z,18.65
2022-09-12T18:04:38.687Z,18.78
2022-09-12T18:07:07.261Z,18.42
2022-09-12T18:09:39.001Z,17.82
2022-09-12T18:12:08.248Z,18.25
2022-09-12T18:14:37.091Z,18.06
2022-09-12T18:17:08.279Z,18.39
2022-09-12T18:19:37.993Z,18.43
2022-09-12T18:22:07.500Z,18.31
2022-09-12T18:24:36.058Z,18.37
2022-09-12T18:27:05.278Z,17.76
2022-09-12T18:29:33.890Z,18.52
2022-09-12T18:32:02.598Z,18.99
2022-09-12T18:34:31.203Z,19.33
2022-09-12T18:36:59.731Z,19.62
2022-09-12T18:39:28.172Z,19.51
2022-09-12T18:41:56.540Z,19.03
2022-09-12T18:44:25.096Z,18.44
2022-09-12T18:46:54.071Z,18.75
2022-09-12T18:49:22.518Z,18.30
2022-09-12T18:51:52.031Z,18.77
2022-09-12T18:54:20.608Z,18.54
2022-09-12T18:56:49.233Z,18.76
2022-09-12T18:59:17.902Z,18.43
2022-09-12T19:01:46.641Z,18.45
2022-09-12T19:04:15.547Z,19.14
2022-09-12T19:06:50.448Z,19.55
2022-09-12T19:09:22.104Z,19.10
2022-09-12T19:11:50.901Z,19.49
2022-09-12T19:14:23.797Z,19.48
2022-09-12T19:16:53.334Z,19.43
2022-09-12T19:19:22.848Z,19.00
2022-09-12T19:21:51.382Z,18.29
2022-09-12T19:24:20.187Z,18.21
2022-09-12T19:26:49.751Z,18.11
2022-09-12T19:29:18.682Z,17.75
2022-09-12T19:31:47.833Z,18.17
2022-09-12T19:34:16.734Z,18.74
2022-09-12T19:36:46.694Z,18.78
2022-09-12T19:39:17.852Z,19.00
2022-09-12T19:41:46.882Z,19.11
2022-09-12T19:44:16.295Z,19.08
2022-09-12T19:46:45.037Z,19.04
2022-09-12T19:49:14.145Z,19.36
2022-09-12T19:51:42.494Z,19.32
2022-09-12T19:54:11.734Z,19.33
2022-09-12T19:56:40.251Z,19.40
2022-09-12T19:59:08.846Z,19.39
2022-09-12T20:01:38.645Z,19.04
2022-09-12T20:04:07.835Z,18.58
2022-09-12T20:06:36.953Z,18.91
2022-09-12T20:09:05.888Z,18.86
2022-09-12T20:11:34.203Z,18.61
2022-09-12T20:14:02.883Z,18.92
2022-09-12T20:16:32.399Z,19.03
2022-09-12T20:19:08.619Z,19.03
2022-09-12T20:21:38.360Z,18.90
2022-09-12T20:24:13.236Z,18.82
2022-09-12T20:26:42.070Z,18.58
2022-09-12T20:29:11.772Z,18.13
2022-09-12T20:31:42.942Z,18.44
2022-09-12T20:34:20.287Z,18.79
2022-09-12T20:36:49.668Z,19.07
2022-09-12T20:39:22.918Z,18.85
2022-09-12T20:41:52.217Z,19.00
2022-09-12T20:44:21.307Z,18.99
2022-09-12T20:46:49.278Z,18.94
2022-09-12T20:49:17.699Z,18.87
2022-09-12T20:51:46.299Z,18.77
2022-09-12T20:54:14.945Z,18.93
2022-09-12T20:56:42.986Z,19.08
2022-09-12T20:59:14.573Z,19.19
2022-09-12T21:01:43.261Z,19.22
2022-09-12T21:04:14.927Z,19.36
2022-09-12T21:06:44.021Z,19.13
2022-09-12T21:09:12.833Z,19.10
2022-09-12T21:11:41.339Z,18.93
2022-09-12T21:14:10.233Z,18.95
2022-09-12T21:16:39.871Z,18.84
2022-09-12T21:19:09.029Z,18.98
2022-09-12T21:21:37.818Z,18.97
2022-09-12T21:24:06.984Z,19.08
2022-09-12T21:26:35.261Z,18.98
2022-09-12T21:29:03.652Z,18.79
2022-09-12T21:31:32.237Z,18.59
2022-09-12T21:34:00.990Z,18.91
2022-09-12T21:36:29.311Z,19.08
2022-09-12T21:39:00.708Z,19.05
2022-09-12T21:41:30.107Z,19.01
2022-09-12T21:43:58.666Z,18.99
2022-09-12T21:46:27.248Z,18.99
2022-09-12T21:48:56.081Z,19.13
2022-09-12T21:51:24.573Z,19.20
2022-09-12T21:53:53.138Z,19.13
2022-09-12T21:56:22.211Z,19.11
2022-09-12T21:58:50.853Z,19.09
2022-09-12T22:01:19.561Z,19.09
2022-09-12T22:03:48.336Z,19.16
2022-09-12T22:06:20.627Z,19.14
2022-09-12T22:08:50.725Z,19.33
2022-09-12T22:11:21.837Z,19.12
2022-09-12T22:13:50.467Z,19.28
2022-09-12T22:16:18.941Z,19.25
2022-09-12T22:18:48.462Z,19.31
2022-09-12T22:21:20.152Z,19.31
2022-09-12T22:24:06.972Z,19.34
2022-09-12T22:26:43.405Z,19.41
2022-09-12T22:29:14.556Z,19.36
2022-09-12T22:31:43.848Z,19.38
2022-09-12T22:34:12.536Z,19.49
2022-09-12T22:36:41.528Z,19.52
2022-09-12T22:39:10.462Z,19.47
2022-09-12T22:41:38.999Z,19.50
2022-09-12T22:44:07.894Z,19.38
2022-09-12T22:46:36.323Z,19.30
2022-09-12T22:49:06.039Z,19.43
2022-09-12T22:51:35.293Z,19.54
2022-09-12T22:54:04.127Z,19.40
2022-09-12T22:56:32.988Z,19.30
2022-09-12T22:59:02.371Z,19.30
2022-09-12T23:01:33.150Z,19.41
2022-09-12T23:04:02.120Z,19.46
2022-09-12T23:06:30.943Z,19.45
2022-09-12T23:08:59.456Z,19.44
2022-09-12T23:11:29.006Z,19.31
2022-09-12T23:13:57.653Z,19.31
2022-09-12T23:16:29.486Z,19.30
2022-09-12T23:18:58.124Z,19.35
2022-09-12T23:21:26.463Z,19.24
2022-09-12T23:23:54.978Z,19.21
2022-09-12T23:26:25.883Z,19.25
2022-09-12T23:28:56.188Z,19.31
2022-09-12T23:31:27.083Z,19.27
2022-09-12T23:33:56.899Z,19.35
2022-09-12T23:36:26.550Z,19.25
2022-09-12T23:38:56.208Z,19.17
2022-09-12T23:41:25.204Z,19.13
2022-09-12T23:43:54.070Z,19.17
2022-09-12T23:46:23.370Z,19.14
2022-09-12T23:48:54.423Z,19.17
2022-09-12T23:51:23.418Z,19.22
2022-09-12T23:53:52.102Z,19.19
2022-09-12T23:56:20.636Z,19.14
2022-09-12T23:58:49.038Z,19.08
